sensor_id;sensor_type;location;lat;lon;timestamp;temperature;humidity
32446;DHT22;18899;50.748;7.102;2022-09-01T00:01:56;18.40;99.90
32446;DHT22;18899;50.748;7.102;2022-09-01T00:04:23;18.40;99.90
32446;DHT22;18899;50.748;7.102;2022-09-01T00:06:51;18.30;99.90
32446;DHT22;18899;50.748;7.102;2022-09-01T00:09:20;18.20;99.90
32446;DHT22;18899;50.748;7.102;2022-09-01T00:11:50;18.20;99.90
32446;DHT22;18899;50.748;7.102;2022-09-01T00:14:19;18.20;99.90
32446;DHT22;18899;50.748;7.102;2022-09-01T00:16:45;18.20;99.90
32446;DHT22;18899;50.748;7.102;2022-09-01T00:19:11;18.20;99.90
32446;DHT22;18899;50.748;7.102;2022-09-01T00:21:40;18.30;99.90
32446;DHT22;18899;50.748;7.102;2022-09-01T00:24:07;18.40;99.90
32446;DHT22;18899;50.748;7.102;2022-09-01T00:26:32;18.30;99.90
32446;DHT22;18899;50.748;7.102;2022-09-01T00:28:58;18.30;99.90
32446;DHT22;18899;50.748;7.102;2022-09-01T00:31:24;18.30;99.90
32446;DHT22;18899;50.748;7.102;2022-09-01T00:33:50;18.30;99.90
32446;DHT22;18899;50.748;7.102;2022-09-01T00:36:16;18.40;99.90
32446;DHT22;18899;50.748;7.102;2022-09-01T00:38:42;18.40;99.90
32446;DHT22;18899;50.748;7.102;2022-09-01T00:41:08;18.40;99.90
32446;DHT22;18899;50.748;7.102;2022-09-01T00:46:21;18.00;99.90
32446;DHT22;18899;50.748;7.102;2022-09-01T00:48:53;17.90;99.90
32446;DHT22;18899;50.748;7.102;2022-09-01T00:51:20;17.90;99.90
32446;DHT22;18899;50.748;7.102;2022-09-01T00:53:46;17.90;99.90
32446;DHT22;18899;50.748;7.102;2022-09-01T00:56:13;17.80;99.90
32446;DHT22;18899;50.748;7.102;2022-09-01T00:58:39;17.80;99.90
32446;DHT22;18899;50.748;7.102;2022-09-01T01:01:07;17.90;99.90
32446;DHT22;18899;50.748;7.102;2022-09-01T01:03:34;17.90;99.90
32446;DHT22;18899;50.748;7.102;2022-09-01T01:06:04;18.00;99.90
32446;DHT22;18899;50.748;7.102;2022-09-01T01:08:36;18.10;99.90
32446;DHT22;18899;50.748;7.102;2022-09-01T01:11:06;18.00;99.90
32446;DHT22;18899;50.748;7.102;2022-09-01T01:13:52;18.00;99.90
32446;DHT22;18899;50.748;7.102;2022-09-01T01:16:19;18.00;99.90
32446;DHT22;18899;50.748;7.102;2022-09-01T01:18:45;17.90;99.90
32446;DHT22;18899;50.748;7.102;2022-09-01T01:21:25;17.80;99.90
32446;DHT22;18899;50.748;7.102;2022-09-01T01:24:31;17.70;99.90
32446;DHT22;18899;50.748;7.102;2022-09-01T01:26:57;17.50;99.90
32446;DHT22;18899;50.748;7.102;2022-09-01T01:29:26;17.40;99.90
32446;DHT22;18899;50.748;7.102;2022-09-01T01:31:54;17.40;99.90
32446;DHT22;18899;50.748;7.102;2022-09-01T01:34:19;17.50;99.90
32446;DHT22;18899;50.748;7.102;2022-09-01T01:36:47;17.50;99.90
32446;DHT22;18899;50.748;7.102;2022-09-01T01:39:17;17.50;99.90
32446;DHT22;18899;50.748;7.102;2022-09-01T01:41:45;17.40;99.90
32446;DHT22;18899;50.748;7.102;2022-09-01T01:44:15;17.30;99.90
32446;DHT22;18899;50.748;7.102;2022-09-01T01:46:43;17.20;99.90
32446;DHT22;18899;50.748;7.102;2022-09-01T01:49:10;17.20;99.90
32446;DHT22;18899;50.748;7.102;2022-09-01T01:51:38;17.20;99.90
32446;DHT22;18899;50.748;7.102;2022-09-01T01:54:04;17.20;99.90
32446;DHT22;18899;50.748;7.102;2022-09-01T01:56:32;17.20;99.90
32446;DHT22;18899;50.748;7.102;2022-09-01T01:58:58;17.20;99.90
32446;DHT22;18899;50.748;7.102;2022-09-01T02:01:27;17.30;99.90
32446;DHT22;18899;50.748;7.102;2022-09-01T02:03:55;17.20;99.90
32446;DHT22;18899;50.748;7.102;2022-09-01T02:06:23;17.20;99.90
32446;DHT22;18899;50.748;7.102;2022-09-01T02:08:50;17.10;99.90
32446;DHT22;18899;50.748;7.102;2022-09-01T02:11:17;17.00;99.90
32446;DHT22;18899;50.748;7.102;2022-09-01T02:13:43;17.00;99.90
32446;DHT22;18899;50.748;7.102;2022-09-01T02:16:10;17.00;99.90
32446;DHT22;18899;50.748;7.102;2022-09-01T02:18:41;17.00;99.90
32446;DHT22;18899;50.748;7.102;2022-09-01T02:21:08;17.00;99.90
32446;DHT22;18899;50.748;7.102;2022-09-01T02:23:36;17.00;99.90
32446;DHT22;18899;50.748;7.102;2022-09-01T02:26:03;17.00;99.90
32446;DHT22;18899;50.748;7.102;2022-09-01T02:28:32;17.00;99.90
32446;DHT22;18899;50.748;7.102;2022-09-01T02:30:59;17.10;99.90
32446;DHT22;18899;50.748;7.102;2022-09-01T02:33:27;17.10;99.90
32446;DHT22;18899;50.748;7.102;2022-09-01T02:36:13;17.00;99.90
32446;DHT22;18899;50.748;7.102;2022-09-01T02:38:41;17.00;99.90
32446;DHT22;18899;50.748;7.102;2022-09-01T02:41:09;17.00;99.90
32446;DHT22;18899;50.748;7.102;2022-09-01T02:43:34;17.10;99.90
32446;DHT22;18899;50.748;7.102;2022-09-01T02:46:00;17.20;99.90
32446;DHT22;18899;50.748;7.102;2022-09-01T02:48:32;17.20;99.90
32446;DHT22;18899;50.748;7.102;2022-09-01T02:51:04;17.30;99.90
32446;DHT22;18899;50.748;7.102;2022-09-01T02:53:30;17.20;99.90
32446;DHT22;18899;50.748;7.102;2022-09-01T02:55:57;17.20;99.90
32446;DHT22;18899;50.748;7.102;2022-09-01T02:58:25;17.00;99.90
32446;DHT22;18899;50.748;7.102;2022-09-01T03:00:53;17.00;99.90
32446;DHT22;18899;50.748;7.102;2022-09-01T03:03:20;16.90;99.90
32446;DHT22;18899;50.748;7.102;2022-09-01T03:05:47;16.80;99.90
32446;DHT22;18899;50.748;7.102;2022-09-01T03:08:12;16.60;99.90
32446;DHT22;18899;50.748;7.102;2022-09-01T03:10:42;16.50;99.90
32446;DHT22;18899;50.748;7.102;2022-09-01T03:13:19;16.30;99.90
32446;DHT22;18899;50.748;7.102;2022-09-01T03:15:46;16.30;99.90
32446;DHT22;18899;50.748;7.102;2022-09-01T03:18:13;16.10;99.90
32446;DHT22;18899;50.748;7.102;2022-09-01T03:20:41;16.00;99.90
32446;DHT22;18899;50.748;7.102;2022-09-01T03:23:09;16.10;99.90
32446;DHT22;18899;50.748;7.102;2022-09-01T03:25:37;16.00;99.90
32446;DHT22;18899;50.748;7.102;2022-09-01T03:28:04;16.00;99.90
32446;DHT22;18899;50.748;7.102;2022-09-01T03:30:31;15.90;99.90
32446;DHT22;18899;50.748;7.102;2022-09-01T03:32:58;15.90;99.90
32446;DHT22;18899;50.748;7.102;2022-09-01T03:35:24;15.70;99.90
32446;DHT22;18899;50.748;7.102;2022-09-01T03:37:51;15.60;99.90
32446;DHT22;18899;50.748;7.102;2022-09-01T03:40:18;15.70;99.90
32446;DHT22;18899;50.748;7.102;2022-09-01T03:42:44;15.60;99.90
32446;DHT22;18899;50.748;7.102;2022-09-01T03:45:11;15.50;99.90
32446;DHT22;18899;50.748;7.102;2022-09-01T03:47:41;15.50;99.90
32446;DHT22;18899;50.748;7.102;2022-09-01T03:50:13;15.50;99.90
32446;DHT22;18899;50.748;7.102;2022-09-01T03:52:48;15.40;99.90
32446;DHT22;18899;50.748;7.102;2022-09-01T03:55:15;15.40;99.90
32446;DHT22;18899;50.748;7.102;2022-09-01T03:57:54;15.30;99.90
32446;DHT22;18899;50.748;7.102;2022-09-01T04:00:22;15.30;99.90
32446;DHT22;18899;50.748;7.102;2022-09-01T04:02:49;15.10;99.90
32446;DHT22;18899;50.748;7.102;2022-09-01T04:05:19;15.30;99.90
32446;DHT22;18899;50.748;7.102;2022-09-01T04:07:54;15.40;99.90
32446;DHT22;18899;50.748;7.102;2022-09-01T04:10:20;15.40;99.90
32446;DHT22;18899;50.748;7.102;2022-09-01T04:12:47;15.30;99.90
32446;DHT22;18899;50.748;7.102;2022-09-01T04:15:14;15.20;99.90
32446;DHT22;18899;50.748;7.102;2022-09-01T04:17:44;15.10;99.90
32446;DHT22;18899;50.748;7.102;2022-09-01T04:20:28;15.00;99.90
32446;DHT22;18899;50.748;7.102;2022-09-01T04:23:04;15.00;99.90
32446;DHT22;18899;50.748;7.102;2022-09-01T04:25:35;15.00;99.90
32446;DHT22;18899;50.748;7.102;2022-09-01T04:28:02;14.90;99.90
32446;DHT22;18899;50.748;7.102;2022-09-01T04:30:39;15.00;99.90
32446;DHT22;18899;50.748;7.102;2022-09-01T04:33:06;15.10;99.90
32446;DHT22;18899;50.748;7.102;2022-09-01T04:35:37;15.10;99.90
32446;DHT22;18899;50.748;7.102;2022-09-01T04:38:03;15.10;99.90
32446;DHT22;18899;50.748;7.102;2022-09-01T04:40:28;15.20;99.90
32446;DHT22;18899;50.748;7.102;2022-09-01T04:42:54;15.20;99.90
32446;DHT22;18899;50.748;7.102;2022-09-01T04:45:22;15.10;99.90
32446;DHT22;18899;50.748;7.102;2022-09-01T04:47:49;15.30;99.90
32446;DHT22;18899;50.748;7.102;2022-09-01T04:50:17;15.30;99.90
32446;DHT22;18899;50.748;7.102;2022-09-01T04:52:46;15.20;99.90
32446;DHT22;18899;50.748;7.102;2022-09-01T04:55:13;15.20;99.90
32446;DHT22;18899;50.748;7.102;2022-09-01T04:57:46;15.20;99.90
32446;DHT22;18899;50.748;7.102;2022-09-01T05:00:20;15.20;99.90
32446;DHT22;18899;50.748;7.102;2022-09-01T05:03:00;15.20;99.90
32446;DHT22;18899;50.748;7.102;2022-09-01T05:05:39;15.20;99.90
32446;DHT22;18899;50.748;7.102;2022-09-01T05:08:11;15.20;99.90
32446;DHT22;18899;50.748;7.102;2022-09-01T05:10:44;15.30;99.90
32446;DHT22;18899;50.748;7.102;2022-09-01T05:13:11;15.40;99.90
32446;DHT22;18899;50.748;7.102;2022-09-01T05:15:38;15.50;99.90
32446;DHT22;18899;50.748;7.102;2022-09-01T05:18:05;15.60;99.90
32446;DHT22;18899;50.748;7.102;2022-09-01T05:20:39;15.80;99.90
32446;DHT22;18899;50.748;7.102;2022-09-01T05:23:07;15.80;99.90
32446;DHT22;18899;50.748;7.102;2022-09-01T05:25:38;15.80;99.90
32446;DHT22;18899;50.748;7.102;2022-09-01T05:28:05;15.80;99.90
32446;DHT22;18899;50.748;7.102;2022-09-01T05:30:32;15.80;99.90
32446;DHT22;18899;50.748;7.102;2022-09-01T05:33:02;15.80;99.90
32446;DHT22;18899;50.748;7.102;2022-09-01T05:35:30;15.90;99.90
32446;DHT22;18899;50.748;7.102;2022-09-01T05:37:56;15.90;99.90
32446;DHT22;18899;50.748;7.102;2022-09-01T05:40:23;15.90;99.90
32446;DHT22;18899;50.748;7.102;2022-09-01T05:42:49;16.00;99.90
32446;DHT22;18899;50.748;7.102;2022-09-01T05:45:16;16.10;99.90
32446;DHT22;18899;50.748;7.102;2022-09-01T05:47:44;16.20;99.90
32446;DHT22;18899;50.748;7.102;2022-09-01T05:50:10;16.30;99.90
32446;DHT22;18899;50.748;7.102;2022-09-01T05:52:37;16.60;99.90
32446;DHT22;18899;50.748;7.102;2022-09-01T05:55:04;16.70;99.90
32446;DHT22;18899;50.748;7.102;2022-09-01T05:57:34;16.80;99.90
32446;DHT22;18899;50.748;7.102;2022-09-01T05:59:59;16.90;99.90
32446;DHT22;18899;50.748;7.102;2022-09-01T06:02:26;16.90;99.90
32446;DHT22;18899;50.748;7.102;2022-09-01T06:04:52;17.00;99.90
32446;DHT22;18899;50.748;7.102;2022-09-01T06:07:21;17.10;99.90
32446;DHT22;18899;50.748;7.102;2022-09-01T06:09:48;17.10;99.90
32446;DHT22;18899;50.748;7.102;2022-09-01T06:12:15;17.30;99.90
32446;DHT22;18899;50.748;7.102;2022-09-01T06:14:48;17.30;99.90
32446;DHT22;18899;50.748;7.102;2022-09-01T06:17:19;17.30;99.90
32446;DHT22;18899;50.748;7.102;2022-09-01T06:19:47;17.40;99.90
32446;DHT22;18899;50.748;7.102;2022-09-01T06:22:13;17.50;99.90
32446;DHT22;18899;50.748;7.102;2022-09-01T06:24:39;17.60;99.90
32446;DHT22;18899;50.748;7.102;2022-09-01T06:27:06;17.60;99.90
32446;DHT22;18899;50.748;7.102;2022-09-01T06:29:38;17.70;99.90
32446;DHT22;18899;50.748;7.102;2022-09-01T06:32:05;17.80;99.90
32446;DHT22;18899;50.748;7.102;2022-09-01T06:34:34;18.00;99.90
32446;DHT22;18899;50.748;7.102;2022-09-01T06:37:00;19.20;99.90
32446;DHT22;18899;50.748;7.102;2022-09-01T06:39:26;21.00;99.90
32446;DHT22;18899;50.748;7.102;2022-09-01T06:41:51;22.30;99.90
32446;DHT22;18899;50.748;7.102;2022-09-01T06:44:18;23.70;92.30
32446;DHT22;18899;50.748;7.102;2022-09-01T06:46:51;24.90;81.80
32446;DHT22;18899;50.748;7.102;2022-09-01T06:49:21;25.60;74.90
32446;DHT22;18899;50.748;7.102;2022-09-01T06:51:47;25.90;70.40
32446;DHT22;18899;50.748;7.102;2022-09-01T06:54:17;26.60;68.20
32446;DHT22;18899;50.748;7.102;2022-09-01T06:56:44;26.80;63.80
32446;DHT22;18899;50.748;7.102;2022-09-01T06:59:09;27.20;61.10
32446;DHT22;18899;50.748;7.102;2022-09-01T07:01:39;27.60;60.00
32446;DHT22;18899;50.748;7.102;2022-09-01T07:04:05;26.70;61.70
32446;DHT22;18899;50.748;7.102;2022-09-01T07:06:30;27.00;60.30
32446;DHT22;18899;50.748;7.102;2022-09-01T07:08:58;27.00;58.70
32446;DHT22;18899;50.748;7.102;2022-09-01T07:11:27;27.20;60.30
32446;DHT22;18899;50.748;7.102;2022-09-01T07:13:56;28.50;56.40
32446;DHT22;18899;50.748;7.102;2022-09-01T07:16:24;29.50;54.40
32446;DHT22;18899;50.748;7.102;2022-09-01T07:18:54;30.30;51.40
32446;DHT22;18899;50.748;7.102;2022-09-01T07:21:25;29.40;53.00
32446;DHT22;18899;50.748;7.102;2022-09-01T07:23:51;29.40;52.70
32446;DHT22;18899;50.748;7.102;2022-09-01T07:26:17;30.70;50.50
32446;DHT22;18899;50.748;7.102;2022-09-01T07:28:47;30.70;51.00
32446;DHT22;18899;50.748;7.102;2022-09-01T07:31:18;30.10;50.60
32446;DHT22;18899;50.748;7.102;2022-09-01T07:33:45;30.00;51.00
32446;DHT22;18899;50.748;7.102;2022-09-01T07:36:14;30.30;50.00
32446;DHT22;18899;50.748;7.102;2022-09-01T07:38:40;29.40;52.30
32446;DHT22;18899;50.748;7.102;2022-09-01T07:41:06;29.50;50.90
32446;DHT22;18899;50.748;7.102;2022-09-01T07:43:31;29.30;51.00
32446;DHT22;18899;50.748;7.102;2022-09-01T07:45:58;30.10;50.20
32446;DHT22;18899;50.748;7.102;2022-09-01T07:48:25;31.10;50.10
32446;DHT22;18899;50.748;7.102;2022-09-01T07:50:53;30.50;48.60
32446;DHT22;18899;50.748;7.102;2022-09-01T07:53:32;31.20;48.10
32446;DHT22;18899;50.748;7.102;2022-09-01T07:56:05;32.50;45.70
32446;DHT22;18899;50.748;7.102;2022-09-01T07:58:32;33.80;44.20
32446;DHT22;18899;50.748;7.102;2022-09-01T08:00:58;33.30;43.80
32446;DHT22;18899;50.748;7.102;2022-09-01T08:03:28;33.50;43.30
32446;DHT22;18899;50.748;7.102;2022-09-01T08:05:55;33.80;42.10
32446;DHT22;18899;50.748;7.102;2022-09-01T08:08:25;34.30;41.80
32446;DHT22;18899;50.748;7.102;2022-09-01T08:10:51;34.70;41.50
32446;DHT22;18899;50.748;7.102;2022-09-01T08:13:17;33.40;43.20
32446;DHT22;18899;50.748;7.102;2022-09-01T08:15:43;32.70;44.30
32446;DHT22;18899;50.748;7.102;2022-09-01T08:18:09;33.50;42.50
32446;DHT22;18899;50.748;7.102;2022-09-01T08:20:37;33.90;41.20
32446;DHT22;18899;50.748;7.102;2022-09-01T08:23:05;34.40;41.90
32446;DHT22;18899;50.748;7.102;2022-09-01T08:25:31;35.50;39.10
32446;DHT22;18899;50.748;7.102;2022-09-01T08:27:57;36.20;38.50
32446;DHT22;18899;50.748;7.102;2022-09-01T08:30:23;35.20;39.00
32446;DHT22;18899;50.748;7.102;2022-09-01T08:32:48;33.50;43.30
32446;DHT22;18899;50.748;7.102;2022-09-01T08:35:14;32.80;43.50
32446;DHT22;18899;50.748;7.102;2022-09-01T08:37:41;33.20;42.50
32446;DHT22;18899;50.748;7.102;2022-09-01T08:40:13;34.20;40.50
32446;DHT22;18899;50.748;7.102;2022-09-01T08:45:49;33.70;42.20
32446;DHT22;18899;50.748;7.102;2022-09-01T08:48:35;33.80;42.00
32446;DHT22;18899;50.748;7.102;2022-09-01T08:56:36;32.10;44.50
32446;DHT22;18899;50.748;7.102;2022-09-01T08:59:04;31.90;44.90
32446;DHT22;18899;50.748;7.102;2022-09-01T09:07:21;34.50;40.70
32446;DHT22;18899;50.748;7.102;2022-09-01T09:10:28;34.30;41.60
32446;DHT22;18899;50.748;7.102;2022-09-01T09:16:01;33.60;42.40
32446;DHT22;18899;50.748;7.102;2022-09-01T09:18:52;32.70;44.40
32446;DHT22;18899;50.748;7.102;2022-09-01T09:21:40;32.50;44.10
32446;DHT22;18899;50.748;7.102;2022-09-01T09:24:24;33.90;42.60
32446;DHT22;18899;50.748;7.102;2022-09-01T09:26:54;33.50;42.70
32446;DHT22;18899;50.748;7.102;2022-09-01T09:29:20;34.00;42.30
32446;DHT22;18899;50.748;7.102;2022-09-01T09:31:47;34.80;40.30
32446;DHT22;18899;50.748;7.102;2022-09-01T09:37:22;35.90;38.00
32446;DHT22;18899;50.748;7.102;2022-09-01T09:40:11;35.80;38.50
32446;DHT22;18899;50.748;7.102;2022-09-01T09:42:58;34.40;41.60
32446;DHT22;18899;50.748;7.102;2022-09-01T09:45:34;34.40;41.20
32446;DHT22;18899;50.748;7.102;2022-09-01T09:48:05;34.60;40.30
32446;DHT22;18899;50.748;7.102;2022-09-01T09:50:38;33.00;44.30
32446;DHT22;18899;50.748;7.102;2022-09-01T09:55:36;32.40;44.00
32446;DHT22;18899;50.748;7.102;2022-09-01T09:58:13;33.40;42.60
32446;DHT22;18899;50.748;7.102;2022-09-01T10:00:39;33.70;42.50
32446;DHT22;18899;50.748;7.102;2022-09-01T10:03:08;34.30;41.30
32446;DHT22;18899;50.748;7.102;2022-09-01T10:08:07;33.80;40.30
32446;DHT22;18899;50.748;7.102;2022-09-01T10:10:37;34.40;40.30
32446;DHT22;18899;50.748;7.102;2022-09-01T10:13:08;33.90;41.50
32446;DHT22;18899;50.748;7.102;2022-09-01T10:15:35;34.20;40.50
32446;DHT22;18899;50.748;7.102;2022-09-01T10:18:09;33.00;44.20
32446;DHT22;18899;50.748;7.102;2022-09-01T10:20:48;33.10;42.50
32446;DHT22;18899;50.748;7.102;2022-09-01T10:23:17;32.50;42.70
32446;DHT22;18899;50.748;7.102;2022-09-01T10:25:43;30.60;47.50
32446;DHT22;18899;50.748;7.102;2022-09-01T10:28:20;29.30;49.00
32446;DHT22;18899;50.748;7.102;2022-09-01T10:30:51;29.10;50.40
32446;DHT22;18899;50.748;7.102;2022-09-01T10:33:19;29.70;47.60
32446;DHT22;18899;50.748;7.102;2022-09-01T10:35:47;30.30;47.30
32446;DHT22;18899;50.748;7.102;2022-09-01T10:38:22;30.10;47.60
32446;DHT22;18899;50.748;7.102;2022-09-01T10:40:50;29.70;47.50
32446;DHT22;18899;50.748;7.102;2022-09-01T10:43:45;28.80;51.10
32446;DHT22;18899;50.748;7.102;2022-09-01T10:48:50;26.40;55.50
32446;DHT22;18899;50.748;7.102;2022-09-01T10:58:58;25.20;58.20
32446;DHT22;18899;50.748;7.102;2022-09-01T11:04:13;24.90;60.30
32446;DHT22;18899;50.748;7.102;2022-09-01T11:09:40;25.20;57.90
32446;DHT22;18899;50.748;7.102;2022-09-01T11:14:32;25.50;56.70
32446;DHT22;18899;50.748;7.102;2022-09-01T11:27:55;25.70;58.50
32446;DHT22;18899;50.748;7.102;2022-09-01T11:33:17;25.90;57.40
32446;DHT22;18899;50.748;7.102;2022-09-01T11:35:47;25.90;55.70
32446;DHT22;18899;50.748;7.102;2022-09-01T11:38:23;25.80;56.30
32446;DHT22;18899;50.748;7.102;2022-09-01T11:40:55;25.70;57.90
32446;DHT22;18899;50.748;7.102;2022-09-01T11:43:22;25.60;56.70
32446;DHT22;18899;50.748;7.102;2022-09-01T11:46:16;25.40;58.60
32446;DHT22;18899;50.748;7.102;2022-09-01T11:48:51;25.30;59.00
32446;DHT22;18899;50.748;7.102;2022-09-01T11:51:17;25.30;59.60
32446;DHT22;18899;50.748;7.102;2022-09-01T11:53:43;25.40;58.10
32446;DHT22;18899;50.748;7.102;2022-09-01T11:56:18;25.50;56.40
32446;DHT22;18899;50.748;7.102;2022-09-01T11:58:44;25.60;58.10
32446;DHT22;18899;50.748;7.102;2022-09-01T12:03:47;25.70;56.80
32446;DHT22;18899;50.748;7.102;2022-09-01T12:06:21;25.90;57.20
32446;DHT22;18899;50.748;7.102;2022-09-01T12:08:56;25.90;57.30
32446;DHT22;18899;50.748;7.102;2022-09-01T12:11:28;25.70;59.00
32446;DHT22;18899;50.748;7.102;2022-09-01T12:14:04;25.60;58.90
32446;DHT22;18899;50.748;7.102;2022-09-01T12:16:32;25.10;59.60
32446;DHT22;18899;50.748;7.102;2022-09-01T12:19:00;24.90;59.30
32446;DHT22;18899;50.748;7.102;2022-09-01T12:21:30;25.00;59.40
32446;DHT22;18899;50.748;7.102;2022-09-01T12:24:12;25.10;58.40
32446;DHT22;18899;50.748;7.102;2022-09-01T12:26:39;25.10;58.10
32446;DHT22;18899;50.748;7.102;2022-09-01T12:29:06;25.10;58.00
32446;DHT22;18899;50.748;7.102;2022-09-01T12:31:32;25.00;58.80
32446;DHT22;18899;50.748;7.102;2022-09-01T12:33:58;24.80;59.30
32446;DHT22;18899;50.748;7.102;2022-09-01T12:36:34;24.60;60.70
32446;DHT22;18899;50.748;7.102;2022-09-01T12:39:22;24.30;62.00
32446;DHT22;18899;50.748;7.102;2022-09-01T12:42:09;24.30;61.80
32446;DHT22;18899;50.748;7.102;2022-09-01T12:47:06;24.10;63.50
32446;DHT22;18899;50.748;7.102;2022-09-01T12:49:42;24.10;64.20
32446;DHT22;18899;50.748;7.102;2022-09-01T12:54:49;24.00;64.20
32446;DHT22;18899;50.748;7.102;2022-09-01T12:57:30;24.10;64.40
32446;DHT22;18899;50.748;7.102;2022-09-01T13:00:16;24.40;63.10
32446;DHT22;18899;50.748;7.102;2022-09-01T13:02:48;24.70;61.90
32446;DHT22;18899;50.748;7.102;2022-09-01T13:07:56;24.60;61.70
32446;DHT22;18899;50.748;7.102;2022-09-01T13:10:22;24.60;61.50
32446;DHT22;18899;50.748;7.102;2022-09-01T13:12:50;24.60;62.00
32446;DHT22;18899;50.748;7.102;2022-09-01T13:15:16;24.40;62.10
32446;DHT22;18899;50.748;7.102;2022-09-01T13:17:42;24.30;62.20
32446;DHT22;18899;50.748;7.102;2022-09-01T13:20:08;24.30;63.20
32446;DHT22;18899;50.748;7.102;2022-09-01T13:22:34;24.30;64.70
32446;DHT22;18899;50.748;7.102;2022-09-01T13:25:00;24.20;63.40
32446;DHT22;18899;50.748;7.102;2022-09-01T13:27:26;24.20;64.00
32446;DHT22;18899;50.748;7.102;2022-09-01T13:29:52;24.10;64.80
32446;DHT22;18899;50.748;7.102;2022-09-01T13:32:19;24.30;62.60
32446;DHT22;18899;50.748;7.102;2022-09-01T13:34:45;24.40;62.10
32446;DHT22;18899;50.748;7.102;2022-09-01T13:37:11;24.50;61.60
32446;DHT22;18899;50.748;7.102;2022-09-01T13:39:36;24.50;61.60
32446;DHT22;18899;50.748;7.102;2022-09-01T13:42:02;24.50;62.00
32446;DHT22;18899;50.748;7.102;2022-09-01T13:44:27;24.20;61.50
32446;DHT22;18899;50.748;7.102;2022-09-01T13:46:53;24.10;63.60
32446;DHT22;18899;50.748;7.102;2022-09-01T13:49:19;24.10;60.90
32446;DHT22;18899;50.748;7.102;2022-09-01T13:51:52;24.10;62.20
32446;DHT22;18899;50.748;7.102;2022-09-01T13:54:19;24.20;61.70
32446;DHT22;18899;50.748;7.102;2022-09-01T13:56:45;24.30;58.40
32446;DHT22;18899;50.748;7.102;2022-09-01T13:59:10;24.40;58.90
32446;DHT22;18899;50.748;7.102;2022-09-01T14:01:36;24.60;57.70
32446;DHT22;18899;50.748;7.102;2022-09-01T14:04:01;24.50;58.80
32446;DHT22;18899;50.748;7.102;2022-09-01T14:06:31;24.50;57.20
32446;DHT22;18899;50.748;7.102;2022-09-01T14:08:56;24.40;57.20
32446;DHT22;18899;50.748;7.102;2022-09-01T14:11:24;24.30;60.20
32446;DHT22;18899;50.748;7.102;2022-09-01T14:13:51;24.30;58.40
32446;DHT22;18899;50.748;7.102;2022-09-01T14:16:16;24.30;59.00
32446;DHT22;18899;50.748;7.102;2022-09-01T14:18:42;24.20;58.90
32446;DHT22;18899;50.748;7.102;2022-09-01T14:21:14;24.30;59.40
32446;DHT22;18899;50.748;7.102;2022-09-01T14:23:41;24.50;58.20
32446;DHT22;18899;50.748;7.102;2022-09-01T14:26:09;24.70;57.00
32446;DHT22;18899;50.748;7.102;2022-09-01T14:28:36;24.90;56.60
32446;DHT22;18899;50.748;7.102;2022-09-01T14:31:14;25.00;57.60
32446;DHT22;18899;50.748;7.102;2022-09-01T14:33:40;24.90;57.70
32446;DHT22;18899;50.748;7.102;2022-09-01T14:36:07;24.80;58.20
32446;DHT22;18899;50.748;7.102;2022-09-01T14:38:33;24.70;58.40
32446;DHT22;18899;50.748;7.102;2022-09-01T14:41:00;24.50;58.50
32446;DHT22;18899;50.748;7.102;2022-09-01T14:43:26;24.60;57.60
32446;DHT22;18899;50.748;7.102;2022-09-01T14:46:04;24.60;57.30
32446;DHT22;18899;50.748;7.102;2022-09-01T14:48:31;24.40;56.50
32446;DHT22;18899;50.748;7.102;2022-09-01T14:50:57;24.30;56.00
32446;DHT22;18899;50.748;7.102;2022-09-01T14:53:23;24.10;55.80
32446;DHT22;18899;50.748;7.102;2022-09-01T14:55:48;24.10;56.40
32446;DHT22;18899;50.748;7.102;2022-09-01T14:58:14;24.00;56.00
32446;DHT22;18899;50.748;7.102;2022-09-01T15:00:39;24.10;55.90
32446;DHT22;18899;50.748;7.102;2022-09-01T15:03:07;24.20;56.40
32446;DHT22;18899;50.748;7.102;2022-09-01T15:05:35;24.30;55.70
32446;DHT22;18899;50.748;7.102;2022-09-01T15:08:01;24.20;55.80
32446;DHT22;18899;50.748;7.102;2022-09-01T15:10:27;24.30;56.10
32446;DHT22;18899;50.748;7.102;2022-09-01T15:12:55;24.40;56.80
32446;DHT22;18899;50.748;7.102;2022-09-01T15:15:21;24.50;56.50
32446;DHT22;18899;50.748;7.102;2022-09-01T15:17:47;24.60;56.20
32446;DHT22;18899;50.748;7.102;2022-09-01T15:20:13;24.60;55.30
32446;DHT22;18899;50.748;7.102;2022-09-01T15:22:57;24.70;55.80
32446;DHT22;18899;50.748;7.102;2022-09-01T15:25:23;24.80;56.10
32446;DHT22;18899;50.748;7.102;2022-09-01T15:27:49;24.80;54.40
32446;DHT22;18899;50.748;7.102;2022-09-01T15:30:14;24.60;55.60
32446;DHT22;18899;50.748;7.102;2022-09-01T15:32:45;24.60;55.70
32446;DHT22;18899;50.748;7.102;2022-09-01T15:35:12;24.60;54.80
32446;DHT22;18899;50.748;7.102;2022-09-01T15:37:39;24.60;56.50
32446;DHT22;18899;50.748;7.102;2022-09-01T15:40:06;24.60;55.40
32446;DHT22;18899;50.748;7.102;2022-09-01T15:42:33;24.60;54.70
32446;DHT22;18899;50.748;7.102;2022-09-01T15:45:00;24.60;53.60
32446;DHT22;18899;50.748;7.102;2022-09-01T15:47:27;24.60;54.30
32446;DHT22;18899;50.748;7.102;2022-09-01T15:49:53;24.60;55.30
32446;DHT22;18899;50.748;7.102;2022-09-01T15:52:19;24.80;53.60
32446;DHT22;18899;50.748;7.102;2022-09-01T15:54:45;24.80;52.70
32446;DHT22;18899;50.748;7.102;2022-09-01T15:57:11;24.80;53.30
32446;DHT22;18899;50.748;7.102;2022-09-01T15:59:36;24.70;53.20
32446;DHT22;18899;50.748;7.102;2022-09-01T16:02:04;24.80;53.50
32446;DHT22;18899;50.748;7.102;2022-09-01T16:04:31;24.80;53.60
32446;DHT22;18899;50.748;7.102;2022-09-01T16:06:57;24.80;53.50
32446;DHT22;18899;50.748;7.102;2022-09-01T16:09:22;24.80;52.70
32446;DHT22;18899;50.748;7.102;2022-09-01T16:11:50;24.70;53.40
32446;DHT22;18899;50.748;7.102;2022-09-01T16:14:15;24.60;53.60
32446;DHT22;18899;50.748;7.102;2022-09-01T16:16:52;24.60;54.50
32446;DHT22;18899;50.748;7.102;2022-09-01T16:22:20;24.30;54.40
32446;DHT22;18899;50.748;7.102;2022-09-01T16:24:50;24.20;54.50
32446;DHT22;18899;50.748;7.102;2022-09-01T16:27:19;24.10;54.10
32446;DHT22;18899;50.748;7.102;2022-09-01T16:29:57;24.00;53.60
32446;DHT22;18899;50.748;7.102;2022-09-01T16:32:22;23.90;54.60
32446;DHT22;18899;50.748;7.102;2022-09-01T16:34:50;23.80;55.10
32446;DHT22;18899;50.748;7.102;2022-09-01T16:43:04;23.80;54.70
32446;DHT22;18899;50.748;7.102;2022-09-01T16:48:41;23.80;54.70
32446;DHT22;18899;50.748;7.102;2022-09-01T16:56:08;23.70;54.70
32446;DHT22;18899;50.748;7.102;2022-09-01T17:04:27;23.60;55.00
32446;DHT22;18899;50.748;7.102;2022-09-01T17:12:46;23.50;55.10
32446;DHT22;18899;50.748;7.102;2022-09-01T17:15:16;23.40;54.50
32446;DHT22;18899;50.748;7.102;2022-09-01T17:18:11;23.50;53.60
32446;DHT22;18899;50.748;7.102;2022-09-01T17:20:40;23.40;54.00
32446;DHT22;18899;50.748;7.102;2022-09-01T17:23:09;23.40;56.10